Time;durP1;ratioP1;P1;durP2;ratioP2;P2;SDS_P1;SDS_P2;PMS_P1;PMS_P2;Temp;Humidity;BMP_temperature;BMP_pressure;BME280_temperature;BME280_humidity;BME280_pressure;Samples;Min_cycle;Max_cycle;Signal;HPM_P1;HPM_P2
2023/07/28 00:00:16;;;;;;;4.43;3.20;;;16.30;44.50;;;;;;5015079;28;20057;-88
2023/07/28 00:03:03;;;;;;;5.32;3.45;;;16.20;1.00;;;;;;5017005;28;20511;-89
2023/07/28 00:05:50;;;;;;;5.47;3.85;;;16.10;1.00;;;;;;5017441;28;20128;-89
2023/07/28 00:08:43;;;;;;;4.65;3.40;;;16.10;99.90;;;;;;5010061;28;20054;-86
2023/07/28 00:11:31;;;;;;;4.47;3.45;;;16.10;99.90;;;;;;5015630;28;20475;-88
2023/07/28 00:14:18;;;;;;;6.82;3.65;;;16.10;90.00;;;;;;5015926;28;20471;-88
2023/07/28 00:17:06;;;;;;;5.45;2.88;;;16.00;99.90;;;;;;5013424;28;20038;-89
2023/07/28 00:19:55;;;;;;;3.72;3.33;;;15.90;1.00;;;;;;5001711;28;20049;-88
2023/07/28 00:22:42;;;;;;;4.88;3.17;;;15.80;99.90;;;;;;5016194;28;20042;-89
2023/07/28 00:25:29;;;;;;;4.20;3.35;;;15.70;1.00;;;;;;5018976;28;20136;-90
2023/07/28 00:28:17;;;;;;;5.93;3.75;;;15.60;99.90;;;;;;5039496;28;20046;-86
2023/07/28 00:31:05;;;;;;;5.43;3.22;;;15.60;1.00;;;;;;5012966;28;20056;-89
2023/07/28 00:33:52;;;;;;;3.33;3.03;;;15.60;99.90;;;;;;5018739;28;20038;-89
2023/07/28 00:36:41;;;;;;;3.53;3.03;;;15.70;99.90;;;;;;5009995;28;20475;-88
2023/07/28 00:39:29;;;;;;;4.57;3.45;;;15.80;1.00;;;;;;5012961;28;20046;-87
2023/07/28 00:42:18;;;;;;;4.25;3.47;;;15.80;99.90;;;;;;5008775;28;20053;-87
2023/07/28 00:45:06;;;;;;;5.03;3.38;;;15.90;99.90;;;;;;5008460;28;20054;-86
2023/07/28 00:47:57;;;;;;;3.78;3.10;;;15.80;99.90;;;;;;5009337;28;20105;-87
2023/07/28 00:50:47;;;;;;;3.90;2.83;;;15.80;1.00;;;;;;5019057;28;20042;-88
2023/07/28 00:53:34;;;;;;;8.02;3.55;;;15.70;1.00;;;;;;5005770;28;20085;-87
2023/07/28 00:56:22;;;;;;;12.15;5.72;;;15.60;99.90;;;;;;5014265;28;20045;-88
2023/07/28 00:59:09;;;;;;;10.85;6.47;;;15.60;1.00;;;;;;5006238;28;20050;-88
2023/07/28 01:01:57;;;;;;;10.57;5.88;;;15.60;99.90;;;;;;5013161;28;20042;-89
2023/07/28 01:04:46;;;;;;;8.60;4.63;;;15.60;99.90;;;;;;5022379;28;20064;-88
2023/07/28 01:07:53;;;;;;;6.10;3.83;;;15.60;99.90;;;;;;5028065;28;20050;-87
2023/07/28 01:10:43;;;;;;;6.57;4.00;;;15.60;99.90;;;;;;5011417;28;20042;-88
2023/07/28 01:13:30;;;;;;;5.63;4.13;;;15.60;99.90;;;;;;5027425;28;20098;-89
2023/07/28 01:16:21;;;;;;;5.40;3.35;;;15.60;99.90;;;;;;5013145;28;20038;-88
2023/07/28 01:19:13;;;;;;;4.60;3.33;;;15.60;99.90;;;;;;5015200;28;20048;-88
2023/07/28 01:22:17;;;;;;;7.07;3.55;;;15.60;1.00;;;;;;5010895;28;20056;-88
2023/07/28 01:25:42;;;;;;;4.07;3.22;;;15.60;63.80;;;;;;5014453;28;20474;-90
2023/07/28 01:28:33;;;;;;;4.63;3.20;;;15.60;99.90;;;;;;4979293;28;20321;-87
2023/07/28 01:31:29;;;;;;;5.18;3.15;;;15.60;99.90;;;;;;5012845;28;20057;-88
2023/07/28 01:34:16;;;;;;;6.45;3.40;;;15.60;45.60;;;;;;5026267;28;20041;-88
2023/07/28 01:37:04;;;;;;;5.72;3.50;;;15.70;1.00;;;;;;5013422;28;20666;-87
2023/07/28 01:39:52;;;;;;;8.60;3.28;;;15.80;99.90;;;;;;5014093;28;20050;-87
2023/07/28 01:42:40;;;;;;;3.30;2.78;;;15.80;1.00;;;;;;5014397;28;20144;-86
2023/07/28 01:45:27;;;;;;;4.68;3.03;;;15.90;99.90;;;;;;5014857;28;20121;-88
2023/07/28 01:48:17;;;;;;;4.32;3.42;;;15.90;99.90;;;;;;5012125;28;20494;-87
2023/07/28 01:51:04;;;;;;;4.47;3.25;;;15.90;1.00;;;;;;5009841;28;20053;-87
2023/07/28 01:53:54;;;;;;;3.58;3.10;;;15.90;99.90;;;;;;5011907;28;20044;-86
2023/07/28 01:56:42;;;;;;;5.07;3.88;;;15.80;99.90;;;;;;5008394;28;20053;-86
2023/07/28 01:59:29;;;;;;;7.28;3.75;;;15.60;1.00;;;;;;5018083;28;20049;-87
2023/07/28 02:02:18;;;;;;;3.42;2.95;;;15.40;99.90;;;;;;5001111;28;20363;-87
2023/07/28 02:05:06;;;;;;;5.75;3.90;;;15.30;99.90;;;;;;5013887;28;20053;-87
2023/07/28 02:07:53;;;;;;;5.30;3.72;;;15.20;99.90;;;;;;5013328;28;20038;-87
2023/07/28 02:10:40;;;;;;;4.57;3.70;;;15.10;99.90;;;;;;5010008;28;20050;-85
2023/07/28 02:13:30;;;;;;;5.03;3.78;;;15.10;1.00;;;;;;5014308;28;20069;-88
2023/07/28 02:16:18;;;;;;;4.03;3.63;;;15.10;1.00;;;;;;5012566;28;20439;-88
2023/07/28 02:19:06;;;;;;;5.40;3.38;;;15.10;27.50;;;;;;5010412;28;20046;-88
2023/07/28 02:21:53;;;;;;;6.25;4.03;;;15.10;85.40;;;;;;5013116;28;20443;-88
2023/07/28 02:24:42;;;;;;;5.88;3.42;;;15.20;83.70;;;;;;5019768;28;20049;-88
2023/07/28 02:27:29;;;;;;;6.22;3.45;;;15.30;60.00;;;;;;5016639;28;20467;-88
2023/07/28 02:30:17;;;;;;;4.57;2.83;;;15.40;1.00;;;;;;5026748;28;20050;-87
2023/07/28 02:33:07;;;;;;;7.20;3.00;;;15.40;1.00;;;;;;5011714;28;20360;-88
2023/07/28 02:35:54;;;;;;;4.65;3.67;;;15.50;1.00;;;;;;5012895;28;20195;-87
2023/07/28 02:38:41;;;;;;;5.20;3.13;;;15.60;99.90;;;;;;5013926;28;20176;-88
2023/07/28 02:41:29;;;;;;;4.93;3.45;;;15.60;99.90;;;;;;5017491;28;20057;-88
2023/07/28 02:44:17;;;;;;;5.45;3.30;;;15.70;1.00;;;;;;5030796;28;20117;-87
2023/07/28 02:47:04;;;;;;;3.58;2.92;;;15.70;1.00;;;;;;5019983;28;20589;-89
2023/07/28 02:49:52;;;;;;;4.50;3.05;;;15.70;99.90;;;;;;5019514;28;20051;-88
2023/07/28 02:52:39;;;;;;;4.38;3.60;;;15.70;99.90;;;;;;5016088;28;20042;-87
2023/07/28 02:55:26;;;;;;;4.95;3.80;;;15.70;99.90;;;;;;5013915;28;20053;-89
2023/07/28 02:58:14;;;;;;;3.92;3.40;;;15.70;99.90;;;;;;5012160;28;20042;-87
2023/07/28 03:01:02;;;;;;;4.20;3.10;;;15.80;1.00;;;;;;5010780;28;20061;-87
2023/07/28 03:03:51;;;;;;;5.78;3.13;;;15.80;99.90;;;;;;5016495;28;20104;-86
2023/07/28 03:06:38;;;;;;;5.72;3.20;;;15.90;61.70;;;;;;5015271;28;20435;-87
2023/07/28 03:09:25;;;;;;;7.80;3.72;;;15.90;1.00;;;;;;5018319;28;20046;-88
2023/07/28 03:12:13;;;;;;;4.82;3.40;;;15.90;1.00;;;;;;5025033;28;20324;-88
2023/07/28 03:15:00;;;;;;;4.88;3.05;;;15.80;1.00;;;;;;5019435;28;20048;-88
2023/07/28 03:17:48;;;;;;;6.60;3.25;;;15.80;1.00;;;;;;5014230;28;20037;-86
2023/07/28 03:20:36;;;;;;;5.18;3.70;;;15.70;99.90;;;;;;5019789;28;20061;-86
2023/07/28 03:23:23;;;;;;;4.97;3.40;;;15.70;99.90;;;;;;5039891;28;20067;-89
2023/07/28 03:26:10;;;;;;;3.95;3.50;;;15.70;99.90;;;;;;5006851;28;20038;-86
2023/07/28 03:28:57;;;;;;;9.43;3.42;;;15.70;1.00;;;;;;5002295;28;20474;-86
2023/07/28 03:31:44;;;;;;;5.68;3.35;;;15.70;99.90;;;;;;5017551;28;20058;-89
2023/07/28 03:34:34;;;;;;;5.45;3.50;;;15.70;99.90;;;;;;5024048;28;20046;-88
2023/07/28 03:37:21;;;;;;;4.78;3.53;;;15.80;99.90;;;;;;5032654;28;20052;-91
2023/07/28 03:40:09;;;;;;;4.68;3.63;;;15.80;99.90;;;;;;5015748;28;20383;-89
2023/07/28 03:42:57;;;;;;;3.60;3.00;;;15.90;99.90;;;;;;5028283;28;20392;-89
2023/07/28 03:45:45;;;;;;;4.60;2.95;;;15.90;1.00;;;;;;5006398;28;20153;-89
2023/07/28 03:48:32;;;;;;;4.30;3.28;;;16.00;1.00;;;;;;5031963;28;20049;-89
2023/07/28 03:51:20;;;;;;;6.38;3.50;;;16.00;1.00;;;;;;5008847;28;20092;-88
2023/07/28 03:54:08;;;;;;;13.60;3.40;;;16.10;99.90;;;;;;5004170;28;20064;-86
2023/07/28 03:56:55;;;;;;;7.10;3.25;;;16.10;1.00;;;;;;5017512;28;20045;-87
2023/07/28 03:59:42;;;;;;;6.10;3.80;;;16.10;1.00;;;;;;5021587;28;20371;-88
2023/07/28 04:02:29;;;;;;;3.90;2.80;;;16.10;1.00;;;;;;5018633;28;20046;-87
2023/07/28 04:05:17;;;;;;;4.80;2.85;;;16.10;1.00;;;;;;5023156;28;20103;-88
2023/07/28 04:08:04;;;;;;;3.15;2.85;;;16.20;99.90;;;;;;5032857;28;20050;-89
2023/07/28 04:10:54;;;;;;;5.03;3.25;;;16.20;55.30;;;;;;5016093;28;20045;-87
2023/07/28 04:13:41;;;;;;;4.63;2.92;;;16.30;1.00;;;;;;5019260;28;20468;-87
2023/07/28 04:16:28;;;;;;;5.72;3.22;;;16.30;1.00;;;;;;5008843;28;20042;-86
2023/07/28 04:19:16;;;;;;;3.88;2.63;;;16.30;99.90;;;;;;5020395;28;20042;-89
2023/07/28 04:22:05;;;;;;;4.68;3.20;;;16.30;99.90;;;;;;5013147;28;20061;-89
2023/07/28 04:24:55;;;;;;;3.20;2.80;;;16.30;99.90;;;;;;5005660;28;20049;-88
2023/07/28 04:27:45;;;;;;;5.00;3.47;;;16.30;99.90;;;;;;5016225;28;20451;-84
2023/07/28 04:30:32;;;;;;;6.80;4.00;;;16.30;99.90;;;;;;5013307;28;20041;-87
2023/07/28 04:33:19;;;;;;;3.72;3.00;;;16.30;99.90;;;;;;5015182;28;20395;-88
2023/07/28 04:36:08;;;;;;;6.38;3.22;;;16.40;99.90;;;;;;5011307;28;20037;-88
2023/07/28 04:38:56;;;;;;;4.78;2.92;;;16.40;99.90;;;;;;5020066;28;20083;-88
2023/07/28 04:41:45;;;;;;;6.72;3.30;;;16.40;99.90;;;;;;5009192;28;20452;-86
2023/07/28 04:44:35;;;;;;;5.93;3.15;;;16.40;99.90;;;;;;5012080;28;20046;-87
2023/07/28 04:47:22;;;;;;;4.50;3.20;;;16.40;99.90;;;;;;5010275;28;20061;-89
2023/07/28 04:55:31;;;;;;;5.20;3.05;;;16.40;1.00;;;;;;5185440;22;20045;-86
2023/07/28 04:58:23;;;;;;;4.07;3.03;;;16.40;1.00;;;;;;5063862;28;20136;-86
2023/07/28 05:01:13;;;;;;;3.30;3.00;;;16.40;99.90;;;;;;5102675;28;20049;-85
2023/07/28 05:04:00;;;;;;;4.50;3.47;;;16.30;22.70;;;;;;5081134;28;20041;-86
2023/07/28 05:06:47;;;;;;;3.95;2.70;;;16.30;99.90;;;;;;5076916;28;20473;-86
2023/07/28 05:09:34;;;;;;;6.35;3.67;;;16.20;1.00;;;;;;5088602;28;20107;-90
2023/07/28 05:12:24;;;;;;;4.60;3.72;;;16.10;61.30;;;;;;5092702;28;20037;-90
2023/07/28 05:15:14;;;;;;;5.30;3.30;;;16.10;99.90;;;;;;5089926;28;20051;-88
2023/07/28 05:18:10;;;;;;;4.00;3.60;;;16.00;99.90;;;;;;5070262;28;20041;-92
2023/07/28 05:20:58;;;;;;;5.13;3.83;;;16.00;99.90;;;;;;5085300;28;20127;-91
2023/07/28 05:23:47;;;;;;;6.50;4.00;;;15.90;99.90;;;;;;5100893;28;20049;-92
2023/07/28 05:26:35;;;;;;;5.07;4.45;;;15.90;99.90;;;;;;5082987;28;20053;-93
2023/07/28 05:29:24;;;;;;;6.03;5.20;;;15.90;99.90;;;;;;5077127;28;20071;-91
2023/07/28 05:32:14;;;;;;;5.25;4.60;;;15.90;99.90;;;;;;5086374;28;20040;-92
2023/07/28 05:35:01;;;;;;;7.97;4.72;;;15.90;99.90;;;;;;5099536;28;20068;-90
2023/07/28 05:37:49;;;;;;;8.35;4.93;;;15.90;99.90;;;;;;5076619;28;20065;-83
2023/07/28 05:40:38;;;;;;;5.28;4.68;;;15.90;99.90;;;;;;5094373;28;20057;-87
2023/07/28 05:43:26;;;;;;;7.93;5.38;;;16.00;99.90;;;;;;5076182;28;20052;-88
2023/07/28 05:46:13;;;;;;;5.57;4.63;;;16.00;99.90;;;;;;5085697;28;20033;-91
2023/07/28 05:49:04;;;;;;;7.78;4.68;;;16.00;99.90;;;;;;5066906;28;20410;-91
2023/07/28 05:51:53;;;;;;;4.88;4.07;;;16.00;99.90;;;;;;5076379;28;20100;-91
2023/07/28 05:55:05;;;;;;;7.00;4.72;;;16.00;99.90;;;;;;5066038;28;20119;-88
2023/07/28 05:58:20;;;;;;;5.63;4.47;;;16.00;99.90;;;;;;5062186;28;20417;-87
2023/07/28 06:01:17;;;;;;;5.72;4.10;;;16.10;99.90;;;;;;5057464;28;20049;-91
2023/07/28 06:04:05;;;;;;;5.20;4.05;;;16.10;99.90;;;;;;5047938;28;20048;-88
2023/07/28 06:06:53;;;;;;;8.52;4.57;;;16.10;99.90;;;;;;5044472;28;20124;-89
2023/07/28 06:09:42;;;;;;;9.05;4.07;;;16.10;99.90;;;;;;5043214;28;20087;-90
2023/07/28 06:59:55;;;;;;;;;;;;;;;;;;;;;
2023/07/28 07:03:32;;;;;;;7.85;5.45;;;17.00;99.90;;;;;;5060272;28;20049;-90
2023/07/28 07:18:31;;;;;;;7.03;4.18;;;17.50;99.90;;;;;;4896630;29;20029;-91
2023/07/28 07:28:07;;;;;;;6.38;3.97;;;17.70;1.00;;;;;;4902458;28;20182;-88
2023/07/28 07:30:57;;;;;;;7.07;4.00;;;18.00;99.90;;;;;;5038250;28;20053;-88
2023/07/28 07:33:47;;;;;;;;;;;18.20;99.90;;;;;;5025329;28;20057;-87
2023/07/28 07:36:34;;;;;;;7.72;3.08;;;18.30;1.30;;;;;;5043712;28;20279;-93
2023/07/28 07:39:22;;;;;;;3.40;3.10;;;18.60;99.90;;;;;;5045171;28;20886;-92
2023/07/28 07:42:11;;;;;;;4.50;3.47;;;18.70;99.90;;;;;;5045955;28;20179;-92
2023/07/28 07:44:59;;;;;;;3.83;2.92;;;18.80;15.60;;;;;;5078134;28;20134;-92
2023/07/28 07:52:23;;;;;;;3.22;2.63;;;18.80;9.70;;;;;;5008711;28;20041;-88
2023/07/28 08:03:58;;;;;;;3.35;2.38;;;18.90;99.90;;;;;;4880246;29;20041;-91
2023/07/28 08:07:08;;;;;;;4.88;2.78;;;19.10;99.90;;;;;;4888816;29;20045;-89
2023/07/28 08:09:56;;;;;;;3.47;2.40;;;19.40;1.00;;;;;;4969533;28;20474;-92
2023/07/28 08:34:22;;;;;;;3.03;2.47;;;20.80;99.90;;;;;;4916961;29;20035;-91
2023/07/28 08:38:00;;;;;;;3.05;2.55;;;20.80;99.90;;;;;;4982781;28;20059;-92
2023/07/28 08:41:18;;;;;;;5.30;2.20;;;21.10;99.90;;;;;;5087665;28;20173;-91
2023/07/28 08:44:57;;;;;;;4.40;2.20;;;21.70;99.90;;;;;;5091766;28;20048;-89
2023/07/28 08:48:25;;;;;;;3.75;1.98;;;21.80;99.90;;;;;;5081944;28;20032;-91
2023/07/28 09:00:09;;;;;;;5.18;2.80;;;22.20;30.00;;;;;;5005304;28;20025;-91
2023/07/28 09:11:51;;;;;;;3.17;2.42;;;21.60;1.00;;;;;;4966347;28;20073;-91
2023/07/28 09:14:47;;;;;;;2.83;2.58;;;21.60;1.00;;;;;;4973138;28;20057;-88
2023/07/28 09:18:17;;;;;;;4.00;2.50;;;21.60;1.00;;;;;;5045664;28;20053;-91
2023/07/28 09:22:14;;;;;;;3.85;2.53;;;21.70;1.00;;;;;;5066039;28;20074;-91
2023/07/28 09:27:40;;;;;;;2.75;2.15;;;21.40;1.00;;;;;;5558109;22;20510;-82
2023/07/28 09:30:46;;;;;;;3.55;2.35;;;21.30;99.90;;;;;;5048077;28;20608;-86
2023/07/28 09:33:37;;;;;;;2.88;2.35;;;21.20;99.90;;;;;;5046947;28;20052;-86
2023/07/28 09:36:29;;;;;;;5.53;2.70;;;21.30;99.90;;;;;;5040218;28;20055;-84
2023/07/28 09:39:20;;;;;;;4.15;2.40;;;21.50;99.90;;;;;;5043081;28;20045;-83
2023/07/28 09:42:11;;;;;;;9.07;2.13;;;21.80;99.90;;;;;;5057839;28;20047;-84
2023/07/28 09:45:01;;;;;;;2.38;1.95;;;22.20;99.90;;;;;;5072815;28;20037;-82
2023/07/28 09:47:54;;;;;;;2.13;1.90;;;22.10;99.90;;;;;;5060953;28;20051;-88
2023/07/28 09:50:43;;;;;;;2.00;1.73;;;21.70;99.90;;;;;;5058599;28;20049;-82
2023/07/28 09:53:40;;;;;;;4.10;2.20;;;21.80;99.90;;;;;;5054538;28;20109;-85
2023/07/28 09:56:31;;;;;;;1.58;1.40;;;22.10;99.90;;;;;;5059488;28;20369;-83
2023/07/28 09:59:21;;;;;;;2.38;1.90;;;22.70;99.90;;;;;;5078873;28;20049;-86
2023/07/28 10:02:38;;;;;;;2.53;2.03;;;22.90;99.90;;;;;;5058701;28;20064;-89
2023/07/28 10:06:24;;;;;;;3.70;2.08;;;23.20;99.90;;;;;;5067183;28;20138;-87
2023/07/28 10:12:50;;;;;;;2.33;2.03;;;23.30;99.90;;;;;;5002444;28;20098;-85
2023/07/28 10:15:39;;;;;;;3.30;1.98;;;23.00;99.90;;;;;;5001438;28;20045;-85
2023/07/28 10:18:38;;;;;;;2.40;2.00;;;23.00;99.90;;;;;;5057286;28;20041;-85
2023/07/28 10:21:39;;;;;;;4.07;2.63;;;22.70;99.90;;;;;;5052617;28;20103;-88
2023/07/28 10:25:06;;;;;;;3.90;2.10;;;22.70;99.90;;;;;;5044134;28;20045;-85
2023/07/28 10:28:36;;;;;;;3.13;1.92;;;23.20;99.90;;;;;;5047455;28;20399;-86
2023/07/28 10:31:40;;;;;;;2.53;2.22;;;23.60;99.90;;;;;;5045417;28;20150;-88
2023/07/28 10:35:10;;;;;;;1.85;1.70;;;23.80;99.90;;;;;;5047354;28;20130;-89
2023/07/28 10:38:32;;;;;;;2.40;2.17;;;23.80;99.90;;;;;;5032912;28;20087;-87
2023/07/28 10:41:20;;;;;;;3.00;2.05;;;23.60;99.90;;;;;;5060776;28;20041;-87
2023/07/28 10:44:16;;;;;;;3.08;2.10;;;23.50;99.90;;;;;;5045630;28;20058;-85
2023/07/28 10:47:09;;;;;;;3.03;2.60;;;23.40;99.90;;;;;;5052355;28;20048;-86
2023/07/28 10:49:56;;;;;;;;;;;23.50;99.90;;;;;;5054250;28;20049;-88
2023/07/28 10:52:46;;;;;;;2.20;2.00;;;23.60;99.90;;;;;;5060143;28;20147;-86
2023/07/28 10:55:35;;;;;;;3.97;2.22;;;23.50;99.90;;;;;;5045713;28;20051;-86
2023/07/28 10:58:36;;;;;;;2.95;2.08;;;23.60;99.90;;;;;;5062069;28;20103;-88
2023/07/28 11:01:51;;;;;;;2.22;1.95;;;23.50;99.90;;;;;;5062406;28;20029;-88
2023/07/28 11:04:53;;;;;;;2.20;2.00;;;23.50;99.90;;;;;;5050525;28;20040;-86
2023/07/28 11:07:51;;;;;;;2.75;2.25;;;23.80;99.90;;;;;;5049490;28;20122;-87
2023/07/28 11:10:41;;;;;;;2.50;2.30;;;23.80;99.90;;;;;;5046174;28;20047;-86
2023/07/28 11:13:32;;;;;;;4.13;2.80;;;23.70;99.90;;;;;;5045577;28;20116;-86
2023/07/28 11:16:28;;;;;;;5.15;2.90;;;23.80;99.90;;;;;;5050254;28;20125;-87
2023/07/28 11:19:19;;;;;;;2.75;2.40;;;23.90;99.90;;;;;;5043970;28;20041;-87
2023/07/28 11:22:06;;;;;;;2.78;2.35;;;23.90;99.90;;;;;;5061976;28;20059;-85
2023/07/28 11:24:54;;;;;;;4.97;2.50;;;23.90;99.90;;;;;;5046374;28;20072;-87
2023/07/28 11:27:53;;;;;;;3.75;2.38;;;23.60;99.90;;;;;;5045966;28;20102;-89
2023/07/28 11:30:43;;;;;;;4.45;2.72;;;23.10;99.90;;;;;;5052427;28;20060;-91
2023/07/28 11:33:51;;;;;;;;;;;;;;;;;;;;;
2023/07/28 11:37:09;;;;;;;3.30;2.10;;;22.40;99.90;;;;;;5050677;28;20167;-84
2023/07/28 11:40:06;;;;;;;3.47;2.28;;;21.80;99.90;;;;;;5050924;28;20053;-87
2023/07/28 11:42:59;;;;;;;5.30;2.55;;;21.40;99.90;;;;;;5050636;28;20044;-87
2023/07/28 11:45:46;;;;;;;7.95;2.88;;;21.20;99.90;;;;;;5047908;28;20745;-88
2023/07/28 11:48:34;;;;;;;4.53;3.00;;;20.50;99.90;;;;;;5046056;28;20045;-86
2023/07/28 11:51:21;;;;;;;7.68;3.58;;;19.70;33.40;;;;;;5060590;28;20386;-87
2023/07/28 11:54:19;;;;;;;4.25;3.28;;;19.20;99.90;;;;;;5061429;28;20056;-87
2023/07/28 11:57:08;;;;;;;4.25;3.33;;;19.00;99.90;;;;;;5060979;28;20099;-84
2023/07/28 12:00:05;;;;;;;4.32;3.78;;;19.10;1.00;;;;;;5066461;28;20029;-88
2023/07/28 12:03:37;;;;;;;4.07;3.40;;;19.20;99.90;;;;;;5006611;28;20089;-86
2023/07/28 12:06:29;;;;;;;4.18;3.63;;;19.40;99.90;;;;;;5026831;28;20056;-83
2023/07/28 12:09:19;;;;;;;5.22;3.15;;;19.80;1.00;;;;;;5063466;28;20085;-84
2023/07/28 12:24:13;;;;;;;3.38;2.70;;;22.20;88.50;;;;;;5047534;28;20507;-86
2023/07/28 12:44:05;;;;;;;3.85;2.75;;;23.60;99.90;;;;;;4961753;29;20043;-87
2023/07/28 12:47:04;;;;;;;3.67;3.13;;;23.40;99.90;;;;;;4966333;28;20053;-87
2023/07/28 12:49:54;;;;;;;4.63;3.25;;;22.90;99.90;;;;;;5039956;28;20048;-86
2023/07/28 12:52:58;;;;;;;5.95;3.30;;;22.30;99.90;;;;;;5048686;28;20177;-87
2023/07/28 12:56:11;;;;;;;;;;;;;;;;;;;;;
2023/07/28 12:59:22;;;;;;;3.78;2.85;;;21.50;99.90;;;;;;5047375;28;20042;-87
2023/07/28 13:02:22;;;;;;;;;;;;;;;;;;;;;
2023/07/28 13:05:31;;;;;;;7.80;4.15;;;20.90;99.90;;;;;;5048118;28;20112;-88
2023/07/28 13:08:32;;;;;;;5.63;3.65;;;20.80;99.90;;;;;;5050565;28;20040;-85
2023/07/28 13:11:33;;;;;;;5.85;3.60;;;20.60;1.00;;;;;;5060638;28;20037;-87
2023/07/28 13:14:26;;;;;;;3.92;3.03;;;20.40;1.00;;;;;;5066063;28;20046;-87
2023/07/28 13:17:16;;;;;;;5.32;3.47;;;20.20;99.90;;;;;;5066055;28;24451;-89
2023/07/28 13:20:11;;;;;;;6.25;4.07;;;20.10;1.00;;;;;;5040948;28;20396;-88
2023/07/28 13:23:04;;;;;;;6.35;3.95;;;19.90;1.00;;;;;;5053345;28;20135;-88
2023/07/28 13:26:04;;;;;;;4.80;4.05;;;19.80;1.00;;;;;;5051285;28;20045;-88
2023/07/28 13:29:12;;;;;;;;;;;;;;;;;;;;;
2023/07/28 13:32:25;;;;;;;7.88;4.10;;;19.70;1.00;;;;;;5013546;28;20053;-88
2023/07/28 13:35:24;;;;;;;5.50;4.00;;;19.50;99.90;;;;;;5050640;28;20041;-90
2023/07/28 13:38:21;;;;;;;7.18;4.22;;;19.40;99.90;;;;;;5044323;28;20037;-85
2023/07/28 13:41:08;;;;;;;6.43;5.03;;;19.20;1.00;;;;;;5042715;28;20103;-83
2023/07/28 13:43:56;;;;;;;5.35;4.70;;;19.10;1.00;;;;;;5056872;28;20095;-84
2023/07/28 13:46:48;;;;;;;5.78;4.72;;;19.10;77.20;;;;;;5047281;28;20040;-85
2023/07/28 13:49:37;;;;;;;7.00;5.28;;;19.00;99.90;;;;;;5046165;28;20048;-85
2023/07/28 13:52:40;;;;;;;9.20;5.72;;;19.00;99.90;;;;;;5045398;28;20048;-84
2023/07/28 13:55:27;;;;;;;6.97;5.20;;;18.90;99.90;;;;;;5061576;28;20044;-84
2023/07/28 13:58:20;;;;;;;8.55;5.25;;;18.80;99.90;;;;;;5052443;28;20486;-84
2023/07/28 14:01:07;;;;;;;11.85;5.75;;;18.70;99.90;;;;;;5040132;28;20060;-84
2023/07/28 14:03:56;;;;;;;9.80;5.95;;;18.60;99.90;;;;;;5043885;28;20063;-82
2023/07/28 14:06:47;;;;;;;12.48;6.60;;;18.50;99.90;;;;;;5041773;28;20045;-84
2023/07/28 14:09:37;;;;;;;11.60;6.65;;;18.50;99.90;;;;;;5045748;28;20375;-83
2023/07/28 14:12:28;;;;;;;14.98;7.60;;;18.40;99.90;;;;;;5046603;28;20052;-83
2023/07/28 14:15:16;;;;;;;13.00;7.38;;;18.50;99.90;;;;;;5048937;28;20045;-82
2023/07/28 14:18:05;;;;;;;8.85;6.22;;;18.70;99.90;;;;;;5047497;28;20098;-84
2023/07/28 14:20:53;;;;;;;7.68;6.15;;;18.80;99.90;;;;;;5046876;28;20057;-82
2023/07/28 14:23:42;;;;;;;9.93;6.30;;;18.80;99.90;;;;;;5046671;28;20041;-81
2023/07/28 14:26:30;;;;;;;9.90;5.57;;;18.90;99.90;;;;;;5043043;28;20045;-83
2023/07/28 14:29:19;;;;;;;7.45;5.57;;;19.00;99.90;;;;;;5046617;28;20041;-83
2023/07/28 14:32:09;;;;;;;7.32;5.43;;;19.20;99.90;;;;;;5047348;28;20505;-82
2023/07/28 14:34:59;;;;;;;7.38;4.47;;;19.40;99.90;;;;;;5045389;28;20359;-82
2023/07/28 14:37:48;;;;;;;10.70;5.18;;;19.50;99.90;;;;;;5042088;28;20092;-83
2023/07/28 14:40:36;;;;;;;8.88;5.30;;;19.50;99.90;;;;;;5044727;28;20446;-82
2023/07/28 14:43:26;;;;;;;7.45;4.88;;;19.50;99.90;;;;;;5060815;28;20519;-83
2023/07/28 14:46:16;;;;;;;7.88;5.30;;;19.60;99.90;;;;;;5047181;28;20037;-83
2023/07/28 14:49:03;;;;;;;4.78;4.35;;;19.60;99.90;;;;;;5039423;28;20096;-83
2023/07/28 14:51:51;;;;;;;6.13;4.75;;;19.80;99.90;;;;;;5043742;28;20052;-84
2023/07/28 14:54:38;;;;;;;5.93;3.97;;;19.90;99.90;;;;;;5045014;28;20168;-84
2023/07/28 14:57:28;;;;;;;5.70;3.67;;;20.20;99.90;;;;;;5039327;28;20053;-83
2023/07/28 15:00:21;;;;;;;7.15;4.10;;;20.40;99.90;;;;;;5039974;28;20360;-84
2023/07/28 15:03:08;;;;;;;4.72;4.18;;;20.70;1.00;;;;;;5057936;28;20496;-84
2023/07/28 15:05:56;;;;;;;5.70;4.10;;;20.50;1.00;;;;;;5047164;28;20049;-83
2023/07/28 15:08:43;;;;;;;5.75;4.25;;;20.40;99.90;;;;;;5058510;28;20067;-84
2023/07/28 15:11:31;;;;;;;7.05;4.57;;;20.20;99.90;;;;;;5051408;28;20126;-84
2023/07/28 15:14:19;;;;;;;9.50;5.60;;;20.40;99.90;;;;;;5044869;28;20041;-84
2023/07/28 15:17:07;;;;;;;11.45;6.63;;;20.40;99.90;;;;;;5045566;28;20120;-83
2023/07/28 15:19:54;;;;;;;4.53;3.58;;;20.40;1.00;;;;;;5045183;28;20053;-84
2023/07/28 15:22:41;;;;;;;8.40;6.95;;;20.20;99.90;;;;;;5046330;28;20041;-84
2023/07/28 15:25:31;;;;;;;9.25;5.90;;;19.90;99.90;;;;;;5050286;28;20041;-84
2023/07/28 15:28:19;;;;;;;4.85;4.13;;;19.60;63.10;;;;;;5044652;28;20459;-85
2023/07/28 15:31:09;;;;;;;5.82;3.90;;;19.40;99.90;;;;;;5043283;28;20455;-83
2023/07/28 15:33:58;;;;;;;5.60;3.95;;;19.30;99.90;;;;;;5042941;28;20041;-82
2023/07/28 15:36:45;;;;;;;5.22;4.03;;;19.30;99.90;;;;;;5045704;28;20351;-83
2023/07/28 15:39:32;;;;;;;4.88;4.30;;;19.30;99.90;;;;;;5050738;28;20049;-83
2023/07/28 15:42:22;;;;;;;5.45;4.65;;;19.30;99.90;;;;;;5049635;28;20048;-82
2023/07/28 15:45:10;;;;;;;6.57;5.40;;;19.20;1.00;;;;;;5057176;28;20135;-84
2023/07/28 15:47:59;;;;;;;8.75;6.07;;;19.20;99.90;;;;;;5049624;28;20150;-83
2023/07/28 15:50:47;;;;;;;9.20;6.88;;;19.10;99.90;;;;;;5060163;28;20089;-84
2023/07/28 15:53:36;;;;;;;8.82;5.63;;;19.10;99.90;;;;;;5056557;28;20041;-83
2023/07/28 15:56:23;;;;;;;6.88;5.47;;;19.10;99.90;;;;;;5045311;28;20060;-83
2023/07/28 15:59:13;;;;;;;5.32;4.53;;;19.10;99.90;;;;;;5059259;28;20049;-84
2023/07/28 16:02:01;;;;;;;7.20;5.15;;;19.10;1.00;;;;;;5046375;28;20048;-85
2023/07/28 16:04:49;;;;;;;5.80;4.80;;;19.10;1.00;;;;;;5047012;28;20048;-83
2023/07/28 16:07:39;;;;;;;8.13;5.55;;;18.90;99.90;;;;;;5043939;28;20044;-83
2023/07/28 16:10:27;;;;;;;8.82;5.60;;;18.80;85.40;;;;;;5044810;28;20175;-85
2023/07/28 16:13:14;;;;;;;6.85;5.50;;;18.70;99.90;;;;;;5049097;28;20033;-85
2023/07/28 16:16:02;;;;;;;7.88;5.30;;;18.50;99.90;;;;;;5059373;28;20067;-85
2023/07/28 16:18:51;;;;;;;7.82;5.72;;;18.50;99.90;;;;;;5036383;28;20048;-87
2023/07/28 16:21:38;;;;;;;5.25;4.75;;;18.40;99.90;;;;;;5046072;28;20070;-85
2023/07/28 16:24:26;;;;;;;6.78;5.72;;;18.30;99.90;;;;;;5049048;28;20052;-84
2023/07/28 16:27:13;;;;;;;8.52;5.93;;;18.30;99.90;;;;;;5050645;28;20037;-84
2023/07/28 16:30:05;;;;;;;13.00;8.90;;;18.30;99.90;;;;;;5043220;28;20041;-84
2023/07/28 16:32:52;;;;;;;13.05;8.35;;;18.40;99.90;;;;;;5053825;28;20120;-87
2023/07/28 16:35:40;;;;;;;7.68;6.22;;;18.40;99.90;;;;;;5045862;28;20077;-84
2023/07/28 16:38:27;;;;;;;9.68;7.30;;;18.40;99.90;;;;;;5044316;28;20526;-86
2023/07/28 16:41:15;;;;;;;11.35;8.15;;;18.50;99.90;;;;;;5048765;28;20053;-85
2023/07/28 16:44:02;;;;;;;7.30;6.35;;;18.60;99.90;;;;;;5045506;28;20046;-84
2023/07/28 16:46:49;;;;;;;8.23;5.97;;;18.50;99.90;;;;;;5049357;28;20063;-84
2023/07/28 16:49:39;;;;;;;8.13;7.13;;;18.40;99.90;;;;;;5055589;28;20057;-84
2023/07/28 16:52:27;;;;;;;7.72;6.65;;;18.40;99.90;;;;;;5062964;28;20041;-85
2023/07/28 16:55:14;;;;;;;11.68;6.70;;;18.50;99.90;;;;;;5066266;28;20124;-84
2023/07/28 16:58:02;;;;;;;7.15;6.13;;;18.60;99.90;;;;;;5051836;28;20183;-86
2023/07/28 17:00:49;;;;;;;10.63;7.90;;;18.50;99.90;;;;;;5058262;28;20098;-84
2023/07/28 17:03:39;;;;;;;9.85;7.45;;;18.50;99.90;;;;;;5047736;28;20040;-84
2023/07/28 17:06:29;;;;;;;12.50;7.90;;;18.50;99.90;;;;;;5050316;28;20574;-84
2023/07/28 17:09:17;;;;;;;11.07;7.88;;;18.40;99.90;;;;;;5052579;28;20246;-87
2023/07/28 17:12:04;;;;;;;13.35;8.90;;;18.40;99.90;;;;;;5058792;28;20049;-85
2023/07/28 17:14:54;;;;;;;7.90;6.68;;;18.40;99.90;;;;;;5046471;28;20460;-86
2023/07/28 17:17:41;;;;;;;10.05;7.75;;;18.40;99.90;;;;;;5050730;28;20052;-89
2023/07/28 17:20:30;;;;;;;9.82;6.95;;;18.40;99.90;;;;;;5050738;28;20324;-86
2023/07/28 17:23:20;;;;;;;11.07;7.28;;;18.50;99.90;;;;;;5050705;28;20037;-86
2023/07/28 17:26:07;;;;;;;50.58;22.52;;;18.50;99.90;;;;;;5054567;28;20101;-88
2023/07/28 17:28:55;;;;;;;13.45;8.70;;;18.50;99.90;;;;;;5047476;28;20045;-87
2023/07/28 17:31:42;;;;;;;9.77;5.97;;;18.50;99.90;;;;;;5053261;28;20111;-85
2023/07/28 17:34:30;;;;;;;8.93;5.53;;;18.40;99.90;;;;;;5041992;28;20372;-88
2023/07/28 17:37:18;;;;;;;8.52;6.13;;;18.30;99.90;;;;;;5050543;28;20060;-93
2023/07/28 17:40:07;;;;;;;6.30;5.18;;;18.30;99.90;;;;;;5050452;28;20124;-89
2023/07/28 17:42:55;;;;;;;8.70;5.47;;;18.10;99.90;;;;;;5068992;28;20044;-90
2023/07/28 17:45:45;;;;;;;8.07;4.90;;;18.10;99.90;;;;;;5054224;28;20429;-90